sensor_id;sensor_type;location;lat;lon;timestamp;temperature;humidity
30304;DHT22;17112;48.636;10.152;2023-04-24T00:00:04;14.10;65.30
30304;DHT22;17112;48.636;10.152;2023-04-24T00:02:34;14.10;65.50
30304;DHT22;17112;48.636;10.152;2023-04-24T00:05:04;14.10;65.70
30304;DHT22;17112;48.636;10.152;2023-04-24T00:07:29;14.00;65.80
30304;DHT22;17112;48.636;10.152;2023-04-24T00:09:55;14.00;66.00
30304;DHT22;17112;48.636;10.152;2023-04-24T00:12:21;14.00;66.00
30304;DHT22;17112;48.636;10.152;2023-04-24T00:14:47;14.00;66.00
30304;DHT22;17112;48.636;10.152;2023-04-24T00:17:12;14.00;66.10
30304;DHT22;17112;48.636;10.152;2023-04-24T00:19:38;14.00;66.20
30304;DHT22;17112;48.636;10.152;2023-04-24T00:22:04;14.00;66.20
30304;DHT22;17112;48.636;10.152;2023-04-24T00:24:30;14.00;66.40
30304;DHT22;17112;48.636;10.152;2023-04-24T00:26:56;14.00;66.40
30304;DHT22;17112;48.636;10.152;2023-04-24T00:29:22;14.00;66.40
30304;DHT22;17112;48.636;10.152;2023-04-24T00:31:48;14.00;66.50
30304;DHT22;17112;48.636;10.152;2023-04-24T00:34:13;14.00;66.60
30304;DHT22;17112;48.636;10.152;2023-04-24T00:36:39;13.90;66.50
30304;DHT22;17112;48.636;10.152;2023-04-24T00:39:05;13.90;66.20
30304;DHT22;17112;48.636;10.152;2023-04-24T00:41:34;13.90;66.20
30304;DHT22;17112;48.636;10.152;2023-04-24T00:44:01;13.90;66.30
30304;DHT22;17112;48.636;10.152;2023-04-24T00:46:27;13.90;66.30
30304;DHT22;17112;48.636;10.152;2023-04-24T00:48:53;13.80;66.20
30304;DHT22;17112;48.636;10.152;2023-04-24T00:51:18;13.80;66.10
30304;DHT22;17112;48.636;10.152;2023-04-24T00:53:45;13.80;65.90
30304;DHT22;17112;48.636;10.152;2023-04-24T00:56:11;13.80;65.80
30304;DHT22;17112;48.636;10.152;2023-04-24T00:58:37;13.80;66.00
30304;DHT22;17112;48.636;10.152;2023-04-24T01:01:03;13.70;66.10
30304;DHT22;17112;48.636;10.152;2023-04-24T01:03:33;13.70;66.10
30304;DHT22;17112;48.636;10.152;2023-04-24T01:05:59;13.70;65.90
30304;DHT22;17112;48.636;10.152;2023-04-24T01:08:26;13.70;66.10
30304;DHT22;17112;48.636;10.152;2023-04-24T01:10:53;13.70;66.30
30304;DHT22;17112;48.636;10.152;2023-04-24T01:13:19;13.60;66.30
30304;DHT22;17112;48.636;10.152;2023-04-24T01:15:46;13.60;66.10
30304;DHT22;17112;48.636;10.152;2023-04-24T01:18:12;13.60;66.10
30304;DHT22;17112;48.636;10.152;2023-04-24T01:20:40;13.60;66.00
30304;DHT22;17112;48.636;10.152;2023-04-24T01:23:06;13.60;66.00
30304;DHT22;17112;48.636;10.152;2023-04-24T01:25:32;13.60;66.20
30304;DHT22;17112;48.636;10.152;2023-04-24T01:27:59;13.50;66.20
30304;DHT22;17112;48.636;10.152;2023-04-24T01:30:25;13.50;66.30
30304;DHT22;17112;48.636;10.152;2023-04-24T01:32:51;13.50;66.50
30304;DHT22;17112;48.636;10.152;2023-04-24T01:35:17;13.50;66.60
30304;DHT22;17112;48.636;10.152;2023-04-24T01:37:43;13.50;66.60
30304;DHT22;17112;48.636;10.152;2023-04-24T01:40:09;13.50;66.70
30304;DHT22;17112;48.636;10.152;2023-04-24T01:42:35;13.50;66.80
30304;DHT22;17112;48.636;10.152;2023-04-24T01:45:03;13.50;66.80
30304;DHT22;17112;48.636;10.152;2023-04-24T01:47:30;13.50;66.60
30304;DHT22;17112;48.636;10.152;2023-04-24T01:49:56;13.50;66.80
30304;DHT22;17112;48.636;10.152;2023-04-24T01:52:22;13.50;66.90
30304;DHT22;17112;48.636;10.152;2023-04-24T01:54:48;13.50;66.80
30304;DHT22;17112;48.636;10.152;2023-04-24T01:57:14;13.50;66.90
30304;DHT22;17112;48.636;10.152;2023-04-24T01:59:41;13.50;66.90
30304;DHT22;17112;48.636;10.152;2023-04-24T02:02:07;13.50;67.10
30304;DHT22;17112;48.636;10.152;2023-04-24T02:04:32;13.50;67.20
30304;DHT22;17112;48.636;10.152;2023-04-24T02:06:58;13.50;67.20
30304;DHT22;17112;48.636;10.152;2023-04-24T02:09:24;13.50;67.20
30304;DHT22;17112;48.636;10.152;2023-04-24T02:11:50;13.50;67.30
30304;DHT22;17112;48.636;10.152;2023-04-24T02:14:16;13.50;67.30
30304;DHT22;17112;48.636;10.152;2023-04-24T02:16:41;13.50;67.30
30304;DHT22;17112;48.636;10.152;2023-04-24T02:19:07;13.50;67.20
30304;DHT22;17112;48.636;10.152;2023-04-24T02:21:33;13.50;66.90
30304;DHT22;17112;48.636;10.152;2023-04-24T02:23:59;13.40;66.80
30304;DHT22;17112;48.636;10.152;2023-04-24T02:26:24;13.40;66.80
30304;DHT22;17112;48.636;10.152;2023-04-24T02:28:50;13.40;66.70
30304;DHT22;17112;48.636;10.152;2023-04-24T02:31:16;13.30;66.60
30304;DHT22;17112;48.636;10.152;2023-04-24T02:33:41;13.30;66.70
30304;DHT22;17112;48.636;10.152;2023-04-24T02:36:07;13.30;66.80
30304;DHT22;17112;48.636;10.152;2023-04-24T02:38:33;13.30;66.90
30304;DHT22;17112;48.636;10.152;2023-04-24T02:40:58;13.20;67.00
30304;DHT22;17112;48.636;10.152;2023-04-24T02:43:24;13.20;67.20
30304;DHT22;17112;48.636;10.152;2023-04-24T02:45:49;13.20;67.30
30304;DHT22;17112;48.636;10.152;2023-04-24T02:48:15;13.20;67.30
30304;DHT22;17112;48.636;10.152;2023-04-24T02:50:42;13.20;67.30
30304;DHT22;17112;48.636;10.152;2023-04-24T02:53:07;13.20;67.40
30304;DHT22;17112;48.636;10.152;2023-04-24T02:55:33;13.20;67.50
30304;DHT22;17112;48.636;10.152;2023-04-24T02:57:59;13.20;67.60
30304;DHT22;17112;48.636;10.152;2023-04-24T03:00:25;13.20;67.50
30304;DHT22;17112;48.636;10.152;2023-04-24T03:02:51;13.20;67.60
30304;DHT22;17112;48.636;10.152;2023-04-24T03:05:16;13.20;67.60
30304;DHT22;17112;48.636;10.152;2023-04-24T03:07:42;13.20;67.50
30304;DHT22;17112;48.636;10.152;2023-04-24T03:10:08;13.20;67.40
30304;DHT22;17112;48.636;10.152;2023-04-24T03:12:34;13.20;67.20
30304;DHT22;17112;48.636;10.152;2023-04-24T03:15:01;13.20;67.30
30304;DHT22;17112;48.636;10.152;2023-04-24T03:17:26;13.20;67.40
30304;DHT22;17112;48.636;10.152;2023-04-24T03:19:52;13.20;67.40
30304;DHT22;17112;48.636;10.152;2023-04-24T03:22:18;13.10;67.30
30304;DHT22;17112;48.636;10.152;2023-04-24T03:24:43;13.10;67.50
30304;DHT22;17112;48.636;10.152;2023-04-24T03:27:09;13.10;67.70
30304;DHT22;17112;48.636;10.152;2023-04-24T03:29:35;13.10;68.30
30304;DHT22;17112;48.636;10.152;2023-04-24T03:32:00;13.10;67.70
30304;DHT22;17112;48.636;10.152;2023-04-24T03:34:26;13.10;67.70
30304;DHT22;17112;48.636;10.152;2023-04-24T03:36:51;13.10;67.70
30304;DHT22;17112;48.636;10.152;2023-04-24T03:39:18;13.10;67.50
30304;DHT22;17112;48.636;10.152;2023-04-24T03:41:43;13.10;67.60
30304;DHT22;17112;48.636;10.152;2023-04-24T03:44:09;13.10;67.60
30304;DHT22;17112;48.636;10.152;2023-04-24T03:46:35;13.10;67.70
30304;DHT22;17112;48.636;10.152;2023-04-24T03:49:01;13.10;67.60
30304;DHT22;17112;48.636;10.152;2023-04-24T03:51:26;13.10;67.80
30304;DHT22;17112;48.636;10.152;2023-04-24T03:53:53;13.10;67.80
30304;DHT22;17112;48.636;10.152;2023-04-24T03:56:19;13.00;67.80
30304;DHT22;17112;48.636;10.152;2023-04-24T03:58:45;13.00;67.90
30304;DHT22;17112;48.636;10.152;2023-04-24T04:01:11;13.00;68.70
30304;DHT22;17112;48.636;10.152;2023-04-24T04:03:37;13.00;68.00
30304;DHT22;17112;48.636;10.152;2023-04-24T04:06:03;13.00;68.10
30304;DHT22;17112;48.636;10.152;2023-04-24T04:08:28;13.10;68.20
30304;DHT22;17112;48.636;10.152;2023-04-24T04:10:54;13.10;68.20
30304;DHT22;17112;48.636;10.152;2023-04-24T04:13:20;13.10;68.00
30304;DHT22;17112;48.636;10.152;2023-04-24T04:15:45;13.10;68.10
30304;DHT22;17112;48.636;10.152;2023-04-24T04:18:11;13.10;68.20
30304;DHT22;17112;48.636;10.152;2023-04-24T04:20:37;13.10;68.20
30304;DHT22;17112;48.636;10.152;2023-04-24T04:23:02;13.00;68.10
30304;DHT22;17112;48.636;10.152;2023-04-24T04:25:28;13.00;68.10
30304;DHT22;17112;48.636;10.152;2023-04-24T04:27:54;13.10;68.30
30304;DHT22;17112;48.636;10.152;2023-04-24T04:30:20;13.00;68.40
30304;DHT22;17112;48.636;10.152;2023-04-24T04:32:46;13.00;68.50
30304;DHT22;17112;48.636;10.152;2023-04-24T04:35:12;13.00;68.30
30304;DHT22;17112;48.636;10.152;2023-04-24T04:37:38;13.00;68.40
30304;DHT22;17112;48.636;10.152;2023-04-24T04:40:05;13.00;68.30
30304;DHT22;17112;48.636;10.152;2023-04-24T04:42:32;13.00;68.20
30304;DHT22;17112;48.636;10.152;2023-04-24T04:44:59;13.00;68.40
30304;DHT22;17112;48.636;10.152;2023-04-24T04:47:26;13.00;68.50
30304;DHT22;17112;48.636;10.152;2023-04-24T04:49:52;13.10;68.70
30304;DHT22;17112;48.636;10.152;2023-04-24T04:52:18;13.10;68.70
30304;DHT22;17112;48.636;10.152;2023-04-24T04:54:44;13.10;68.60
30304;DHT22;17112;48.636;10.152;2023-04-24T04:57:10;13.10;68.70
30304;DHT22;17112;48.636;10.152;2023-04-24T04:59:36;13.10;68.70
30304;DHT22;17112;48.636;10.152;2023-04-24T05:02:02;13.10;68.50
30304;DHT22;17112;48.636;10.152;2023-04-24T05:04:28;13.10;68.60
30304;DHT22;17112;48.636;10.152;2023-04-24T05:06:53;13.10;68.50
30304;DHT22;17112;48.636;10.152;2023-04-24T05:09:19;13.10;68.60
30304;DHT22;17112;48.636;10.152;2023-04-24T05:11:45;13.10;68.60
30304;DHT22;17112;48.636;10.152;2023-04-24T05:14:10;13.10;68.70
30304;DHT22;17112;48.636;10.152;2023-04-24T05:16:38;13.10;68.80
30304;DHT22;17112;48.636;10.152;2023-04-24T05:19:03;13.10;68.70
30304;DHT22;17112;48.636;10.152;2023-04-24T05:21:29;13.10;69.10
30304;DHT22;17112;48.636;10.152;2023-04-24T05:23:56;13.10;68.60
30304;DHT22;17112;48.636;10.152;2023-04-24T05:26:21;13.10;68.50
30304;DHT22;17112;48.636;10.152;2023-04-24T05:28:48;13.10;68.80
30304;DHT22;17112;48.636;10.152;2023-04-24T05:31:13;13.10;68.90
30304;DHT22;17112;48.636;10.152;2023-04-24T05:33:39;13.10;69.00
30304;DHT22;17112;48.636;10.152;2023-04-24T05:36:06;13.10;68.70
30304;DHT22;17112;48.636;10.152;2023-04-24T05:38:32;13.10;68.90
30304;DHT22;17112;48.636;10.152;2023-04-24T05:40:57;13.20;69.20
30304;DHT22;17112;48.636;10.152;2023-04-24T05:43:23;13.20;69.20
30304;DHT22;17112;48.636;10.152;2023-04-24T05:45:49;13.20;69.00
30304;DHT22;17112;48.636;10.152;2023-04-24T05:48:14;13.20;68.80
30304;DHT22;17112;48.636;10.152;2023-04-24T05:50:41;13.30;68.90
30304;DHT22;17112;48.636;10.152;2023-04-24T05:53:06;13.30;68.80
30304;DHT22;17112;48.636;10.152;2023-04-24T05:55:32;13.30;68.90
30304;DHT22;17112;48.636;10.152;2023-04-24T05:57:58;13.30;68.60
30304;DHT22;17112;48.636;10.152;2023-04-24T06:00:25;13.30;68.50
30304;DHT22;17112;48.636;10.152;2023-04-24T06:02:51;13.30;68.50
30304;DHT22;17112;48.636;10.152;2023-04-24T06:05:18;13.30;68.50
30304;DHT22;17112;48.636;10.152;2023-04-24T06:07:44;13.30;68.30
30304;DHT22;17112;48.636;10.152;2023-04-24T06:10:10;13.30;65.50
30304;DHT22;17112;48.636;10.152;2023-04-24T06:12:36;13.20;64.60
30304;DHT22;17112;48.636;10.152;2023-04-24T06:15:02;13.00;64.40
30304;DHT22;17112;48.636;10.152;2023-04-24T06:17:28;12.80;64.70
30304;DHT22;17112;48.636;10.152;2023-04-24T06:19:53;12.70;65.00
30304;DHT22;17112;48.636;10.152;2023-04-24T06:22:19;12.50;65.30
30304;DHT22;17112;48.636;10.152;2023-04-24T06:24:44;12.40;65.40
30304;DHT22;17112;48.636;10.152;2023-04-24T06:27:10;12.30;65.80
30304;DHT22;17112;48.636;10.152;2023-04-24T06:29:36;12.20;66.00
30304;DHT22;17112;48.636;10.152;2023-04-24T06:32:02;12.10;65.90
30304;DHT22;17112;48.636;10.152;2023-04-24T06:34:28;12.10;66.10
30304;DHT22;17112;48.636;10.152;2023-04-24T06:36:54;12.00;66.30
30304;DHT22;17112;48.636;10.152;2023-04-24T06:39:20;12.00;66.80
30304;DHT22;17112;48.636;10.152;2023-04-24T06:41:46;12.00;67.20
30304;DHT22;17112;48.636;10.152;2023-04-24T06:44:11;12.00;67.10
30304;DHT22;17112;48.636;10.152;2023-04-24T06:46:37;12.00;67.40
30304;DHT22;17112;48.636;10.152;2023-04-24T06:49:03;12.00;67.40
30304;DHT22;17112;48.636;10.152;2023-04-24T06:51:28;12.10;67.50
30304;DHT22;17112;48.636;10.152;2023-04-24T06:53:54;12.20;67.60
30304;DHT22;17112;48.636;10.152;2023-04-24T06:56:21;12.20;67.70
30304;DHT22;17112;48.636;10.152;2023-04-24T06:58:47;12.30;67.90
30304;DHT22;17112;48.636;10.152;2023-04-24T07:01:13;12.40;67.20
30304;DHT22;17112;48.636;10.152;2023-04-24T07:03:39;12.40;66.80
30304;DHT22;17112;48.636;10.152;2023-04-24T07:06:05;12.50;67.00
30304;DHT22;17112;48.636;10.152;2023-04-24T07:08:31;12.50;67.20
30304;DHT22;17112;48.636;10.152;2023-04-24T07:10:58;12.60;67.30
30304;DHT22;17112;48.636;10.152;2023-04-24T07:13:24;12.70;67.50
30304;DHT22;17112;48.636;10.152;2023-04-24T07:15:49;12.70;67.30
30304;DHT22;17112;48.636;10.152;2023-04-24T07:18:18;12.80;67.30
30304;DHT22;17112;48.636;10.152;2023-04-24T07:20:43;12.90;67.50
30304;DHT22;17112;48.636;10.152;2023-04-24T07:23:10;13.00;67.40
30304;DHT22;17112;48.636;10.152;2023-04-24T07:25:35;13.00;67.10
30304;DHT22;17112;48.636;10.152;2023-04-24T07:28:02;13.10;67.50
30304;DHT22;17112;48.636;10.152;2023-04-24T07:30:27;13.20;67.10
30304;DHT22;17112;48.636;10.152;2023-04-24T07:32:54;13.30;66.50
30304;DHT22;17112;48.636;10.152;2023-04-24T07:35:21;13.40;66.20
30304;DHT22;17112;48.636;10.152;2023-04-24T07:37:48;13.50;65.90
30304;DHT22;17112;48.636;10.152;2023-04-24T07:40:13;13.50;65.70
30304;DHT22;17112;48.636;10.152;2023-04-24T07:42:39;13.50;65.50
30304;DHT22;17112;48.636;10.152;2023-04-24T07:45:07;13.50;65.80
30304;DHT22;17112;48.636;10.152;2023-04-24T07:47:33;13.50;65.10
30304;DHT22;17112;48.636;10.152;2023-04-24T07:49:59;13.50;65.00
30304;DHT22;17112;48.636;10.152;2023-04-24T07:52:25;13.50;65.00
30304;DHT22;17112;48.636;10.152;2023-04-24T07:54:50;13.50;64.70
30304;DHT22;17112;48.636;10.152;2023-04-24T07:57:18;13.50;64.80
30304;DHT22;17112;48.636;10.152;2023-04-24T07:59:44;13.50;64.70
30304;DHT22;17112;48.636;10.152;2023-04-24T08:02:09;13.50;65.10
30304;DHT22;17112;48.636;10.152;2023-04-24T08:04:35;13.50;65.50
30304;DHT22;17112;48.636;10.152;2023-04-24T08:07:01;13.50;65.80
30304;DHT22;17112;48.636;10.152;2023-04-24T08:09:26;13.60;65.60
30304;DHT22;17112;48.636;10.152;2023-04-24T08:11:52;13.70;66.10
30304;DHT22;17112;48.636;10.152;2023-04-24T08:14:18;13.90;66.60
30304;DHT22;17112;48.636;10.152;2023-04-24T08:16:44;14.00;65.80
30304;DHT22;17112;48.636;10.152;2023-04-24T08:19:10;14.10;64.70
30304;DHT22;17112;48.636;10.152;2023-04-24T08:21:36;14.20;64.30
30304;DHT22;17112;48.636;10.152;2023-04-24T08:24:01;14.20;63.00
30304;DHT22;17112;48.636;10.152;2023-04-24T08:26:30;14.30;62.90
30304;DHT22;17112;48.636;10.152;2023-04-24T08:28:57;14.20;62.90
30304;DHT22;17112;48.636;10.152;2023-04-24T08:31:22;14.30;62.80
30304;DHT22;17112;48.636;10.152;2023-04-24T08:33:50;14.30;62.80
30304;DHT22;17112;48.636;10.152;2023-04-24T08:36:15;14.30;62.70
30304;DHT22;17112;48.636;10.152;2023-04-24T08:38:42;14.30;62.60
30304;DHT22;17112;48.636;10.152;2023-04-24T08:41:09;14.40;62.10
30304;DHT22;17112;48.636;10.152;2023-04-24T08:43:35;14.40;62.00
30304;DHT22;17112;48.636;10.152;2023-04-24T08:46:04;14.40;61.70
30304;DHT22;17112;48.636;10.152;2023-04-24T08:48:30;14.40;61.70
30304;DHT22;17112;48.636;10.152;2023-04-24T08:50:57;14.30;62.10
30304;DHT22;17112;48.636;10.152;2023-04-24T08:53:24;14.30;61.90
30304;DHT22;17112;48.636;10.152;2023-04-24T08:55:54;14.20;61.90
30304;DHT22;17112;48.636;10.152;2023-04-24T08:58:20;14.10;61.50
30304;DHT22;17112;48.636;10.152;2023-04-24T09:00:47;14.00;61.00
30304;DHT22;17112;48.636;10.152;2023-04-24T09:03:15;13.90;60.90
30304;DHT22;17112;48.636;10.152;2023-04-24T09:05:43;13.70;61.20
30304;DHT22;17112;48.636;10.152;2023-04-24T09:08:13;13.60;61.40
30304;DHT22;17112;48.636;10.152;2023-04-24T09:10:40;13.50;62.20
30304;DHT22;17112;48.636;10.152;2023-04-24T09:13:06;13.50;63.40
30304;DHT22;17112;48.636;10.152;2023-04-24T09:15:34;13.50;63.80
30304;DHT22;17112;48.636;10.152;2023-04-24T09:18:00;13.60;63.60
30304;DHT22;17112;48.636;10.152;2023-04-24T09:20:27;13.70;63.70
30304;DHT22;17112;48.636;10.152;2023-04-24T09:22:57;13.90;64.10
30304;DHT22;17112;48.636;10.152;2023-04-24T09:25:34;14.00;64.20
30304;DHT22;17112;48.636;10.152;2023-04-24T09:28:05;14.20;63.70
30304;DHT22;17112;48.636;10.152;2023-04-24T09:30:32;14.40;62.90
30304;DHT22;17112;48.636;10.152;2023-04-24T09:33:16;14.50;62.60
30304;DHT22;17112;48.636;10.152;2023-04-24T09:35:51;14.60;61.50
30304;DHT22;17112;48.636;10.152;2023-04-24T09:38:17;14.80;61.70
30304;DHT22;17112;48.636;10.152;2023-04-24T09:40:43;14.80;61.10
30304;DHT22;17112;48.636;10.152;2023-04-24T09:43:12;14.90;61.00
30304;DHT22;17112;48.636;10.152;2023-04-24T09:45:39;14.90;60.30
30304;DHT22;17112;48.636;10.152;2023-04-24T09:48:05;15.00;59.80
30304;DHT22;17112;48.636;10.152;2023-04-24T09:50:32;15.00;59.70
30304;DHT22;17112;48.636;10.152;2023-04-24T09:52:59;15.10;59.60
30304;DHT22;17112;48.636;10.152;2023-04-24T09:55:27;15.20;58.70
30304;DHT22;17112;48.636;10.152;2023-04-24T09:57:56;15.30;58.20
30304;DHT22;17112;48.636;10.152;2023-04-24T10:00:30;15.30;56.90
30304;DHT22;17112;48.636;10.152;2023-04-24T10:05:30;15.50;54.40
30304;DHT22;17112;48.636;10.152;2023-04-24T10:08:04;15.60;52.20
30304;DHT22;17112;48.636;10.152;2023-04-24T10:10:38;15.70;53.30
30304;DHT22;17112;48.636;10.152;2023-04-24T10:13:04;15.70;52.50
30304;DHT22;17112;48.636;10.152;2023-04-24T10:15:30;15.80;53.50
30304;DHT22;17112;48.636;10.152;2023-04-24T10:18:00;15.90;52.00
30304;DHT22;17112;48.636;10.152;2023-04-24T10:20:28;16.10;53.10
30304;DHT22;17112;48.636;10.152;2023-04-24T10:22:58;16.20;52.40
30304;DHT22;17112;48.636;10.152;2023-04-24T10:25:26;16.30;52.10
30304;DHT22;17112;48.636;10.152;2023-04-24T10:27:53;16.40;52.10
30304;DHT22;17112;48.636;10.152;2023-04-24T10:30:23;16.60;53.30
30304;DHT22;17112;48.636;10.152;2023-04-24T10:32:48;16.70;50.50
30304;DHT22;17112;48.636;10.152;2023-04-24T10:35:15;16.70;51.10
30304;DHT22;17112;48.636;10.152;2023-04-24T10:37:54;16.60;50.40
30304;DHT22;17112;48.636;10.152;2023-04-24T10:40:27;16.50;50.50
30304;DHT22;17112;48.636;10.152;2023-04-24T10:42:56;16.50;50.90
30304;DHT22;17112;48.636;10.152;2023-04-24T10:45:23;16.40;51.10
30304;DHT22;17112;48.636;10.152;2023-04-24T10:47:58;16.40;50.90
30304;DHT22;17112;48.636;10.152;2023-04-24T10:50:29;16.50;50.50
30304;DHT22;17112;48.636;10.152;2023-04-24T10:53:14;16.50;48.90
30304;DHT22;17112;48.636;10.152;2023-04-24T10:55:49;16.40;48.40
30304;DHT22;17112;48.636;10.152;2023-04-24T10:58:16;16.30;48.20
30304;DHT22;17112;48.636;10.152;2023-04-24T11:00:43;16.10;48.10
30304;DHT22;17112;48.636;10.152;2023-04-24T11:03:38;16.00;49.10
30304;DHT22;17112;48.636;10.152;2023-04-24T11:06:08;15.90;48.50
30304;DHT22;17112;48.636;10.152;2023-04-24T11:08:43;15.80;48.70
30304;DHT22;17112;48.636;10.152;2023-04-24T11:11:12;15.70;49.60
30304;DHT22;17112;48.636;10.152;2023-04-24T11:16:28;15.80;48.80
30304;DHT22;17112;48.636;10.152;2023-04-24T11:24:23;16.20;48.70
30304;DHT22;17112;48.636;10.152;2023-04-24T11:27:38;16.30;47.40
30304;DHT22;17112;48.636;10.152;2023-04-24T11:32:36;16.20;46.00
30304;DHT22;17112;48.636;10.152;2023-04-24T11:35:18;16.10;46.60
30304;DHT22;17112;48.636;10.152;2023-04-24T11:37:46;16.10;46.80
30304;DHT22;17112;48.636;10.152;2023-04-24T11:40:15;16.00;46.00
30304;DHT22;17112;48.636;10.152;2023-04-24T11:42:45;16.00;46.70
30304;DHT22;17112;48.636;10.152;2023-04-24T11:45:13;15.90;47.10
30304;DHT22;17112;48.636;10.152;2023-04-24T11:47:39;15.90;47.60
30304;DHT22;17112;48.636;10.152;2023-04-24T11:50:08;15.90;47.50
30304;DHT22;17112;48.636;10.152;2023-04-24T11:52:38;15.80;46.30
30304;DHT22;17112;48.636;10.152;2023-04-24T11:55:04;15.80;46.40
30304;DHT22;17112;48.636;10.152;2023-04-24T11:57:31;15.70;46.80
30304;DHT22;17112;48.636;10.152;2023-04-24T12:00:03;15.60;46.50
30304;DHT22;17112;48.636;10.152;2023-04-24T12:02:30;15.60;46.50
30304;DHT22;17112;48.636;10.152;2023-04-24T12:04:56;15.40;46.40
30304;DHT22;17112;48.636;10.152;2023-04-24T12:07:23;15.30;46.50
30304;DHT22;17112;48.636;10.152;2023-04-24T12:09:57;15.20;46.60
30304;DHT22;17112;48.636;10.152;2023-04-24T12:12:26;15.10;46.70
30304;DHT22;17112;48.636;10.152;2023-04-24T12:14:56;15.10;47.30
30304;DHT22;17112;48.636;10.152;2023-04-24T12:17:32;15.10;47.00
30304;DHT22;17112;48.636;10.152;2023-04-24T12:20:04;15.10;46.70
30304;DHT22;17112;48.636;10.152;2023-04-24T12:22:54;15.20;47.70
30304;DHT22;17112;48.636;10.152;2023-04-24T12:25:25;15.30;47.00
30304;DHT22;17112;48.636;10.152;2023-04-24T12:30:34;15.40;47.10
30304;DHT22;17112;48.636;10.152;2023-04-24T12:33:02;15.40;46.40
30304;DHT22;17112;48.636;10.152;2023-04-24T12:35:30;15.50;46.70
30304;DHT22;17112;48.636;10.152;2023-04-24T12:38:06;15.50;47.50
30304;DHT22;17112;48.636;10.152;2023-04-24T12:40:32;15.50;46.30
30304;DHT22;17112;48.636;10.152;2023-04-24T12:42:58;15.50;46.20
30304;DHT22;17112;48.636;10.152;2023-04-24T12:45:24;15.50;45.60
30304;DHT22;17112;48.636;10.152;2023-04-24T12:47:50;15.50;45.40
30304;DHT22;17112;48.636;10.152;2023-04-24T12:50:16;15.50;46.00
30304;DHT22;17112;48.636;10.152;2023-04-24T12:52:43;15.50;45.80
30304;DHT22;17112;48.636;10.152;2023-04-24T12:55:09;15.50;46.20
30304;DHT22;17112;48.636;10.152;2023-04-24T12:57:36;15.40;46.30
30304;DHT22;17112;48.636;10.152;2023-04-24T13:00:02;15.40;46.70
30304;DHT22;17112;48.636;10.152;2023-04-24T13:02:29;15.30;46.60
30304;DHT22;17112;48.636;10.152;2023-04-24T13:04:56;15.30;46.70
30304;DHT22;17112;48.636;10.152;2023-04-24T13:07:22;15.20;47.00
30304;DHT22;17112;48.636;10.152;2023-04-24T13:09:50;15.20;47.10
30304;DHT22;17112;48.636;10.152;2023-04-24T13:12:16;15.20;47.30
30304;DHT22;17112;48.636;10.152;2023-04-24T13:14:41;15.10;47.40
30304;DHT22;17112;48.636;10.152;2023-04-24T13:17:07;15.10;47.10
30304;DHT22;17112;48.636;10.152;2023-04-24T13:19:37;15.10;48.10
30304;DHT22;17112;48.636;10.152;2023-04-24T13:22:03;15.10;47.80
30304;DHT22;17112;48.636;10.152;2023-04-24T13:24:29;15.10;48.00
30304;DHT22;17112;48.636;10.152;2023-04-24T13:26:55;15.10;48.00
30304;DHT22;17112;48.636;10.152;2023-04-24T13:29:22;15.10;48.30
30304;DHT22;17112;48.636;10.152;2023-04-24T13:31:49;15.20;48.50
30304;DHT22;17112;48.636;10.152;2023-04-24T13:34:15;15.30;47.50
30304;DHT22;17112;48.636;10.152;2023-04-24T13:36:41;15.50;47.90
30304;DHT22;17112;48.636;10.152;2023-04-24T13:39:07;15.60;47.60
30304;DHT22;17112;48.636;10.152;2023-04-24T13:41:33;15.60;47.30
30304;DHT22;17112;48.636;10.152;2023-04-24T13:43:59;15.70;47.00
30304;DHT22;17112;48.636;10.152;2023-04-24T13:46:25;15.80;46.90
30304;DHT22;17112;48.636;10.152;2023-04-24T13:48:51;15.90;45.90
30304;DHT22;17112;48.636;10.152;2023-04-24T13:51:17;15.90;46.50
30304;DHT22;17112;48.636;10.152;2023-04-24T13:53:43;15.90;45.60
30304;DHT22;17112;48.636;10.152;2023-04-24T13:56:09;15.80;46.40
30304;DHT22;17112;48.636;10.152;2023-04-24T13:58:35;15.80;46.60
30304;DHT22;17112;48.636;10.152;2023-04-24T14:01:04;15.80;45.90
30304;DHT22;17112;48.636;10.152;2023-04-24T14:03:29;15.90;46.20
30304;DHT22;17112;48.636;10.152;2023-04-24T14:05:55;15.90;46.20
30304;DHT22;17112;48.636;10.152;2023-04-24T14:08:21;15.90;45.90
30304;DHT22;17112;48.636;10.152;2023-04-24T14:10:46;15.90;45.80
30304;DHT22;17112;48.636;10.152;2023-04-24T14:13:12;15.80;46.40
30304;DHT22;17112;48.636;10.152;2023-04-24T14:15:38;15.80;46.10
30304;DHT22;17112;48.636;10.152;2023-04-24T14:18:04;15.70;45.70
30304;DHT22;17112;48.636;10.152;2023-04-24T14:20:30;15.60;46.10
30304;DHT22;17112;48.636;10.152;2023-04-24T14:22:56;15.60;45.90
30304;DHT22;17112;48.636;10.152;2023-04-24T14:25:24;15.60;46.40
30304;DHT22;17112;48.636;10.152;2023-04-24T14:27:50;15.60;46.20
30304;DHT22;17112;48.636;10.152;2023-04-24T14:30:16;15.60;46.30
30304;DHT22;17112;48.636;10.152;2023-04-24T14:32:42;15.60;46.40
30304;DHT22;17112;48.636;10.152;2023-04-24T14:35:08;15.60;46.40
30304;DHT22;17112;48.636;10.152;2023-04-24T14:37:33;15.50;46.40
30304;DHT22;17112;48.636;10.152;2023-04-24T14:39:59;15.50;46.10
30304;DHT22;17112;48.636;10.152;2023-04-24T14:42:25;15.40;46.30
30304;DHT22;17112;48.636;10.152;2023-04-24T14:44:51;15.40;45.50
30304;DHT22;17112;48.636;10.152;2023-04-24T14:47:16;15.30;45.70
30304;DHT22;17112;48.636;10.152;2023-04-24T14:49:43;15.10;46.30
30304;DHT22;17112;48.636;10.152;2023-04-24T14:52:09;15.00;47.10
30304;DHT22;17112;48.636;10.152;2023-04-24T14:54:35;15.00;46.80
30304;DHT22;17112;48.636;10.152;2023-04-24T14:57:01;15.00;47.40
30304;DHT22;17112;48.636;10.152;2023-04-24T14:59:27;14.90;47.60
30304;DHT22;17112;48.636;10.152;2023-04-24T15:01:53;14.90;47.60
30304;DHT22;17112;48.636;10.152;2023-04-24T15:04:23;15.00;47.60
30304;DHT22;17112;48.636;10.152;2023-04-24T15:06:51;14.90;47.40
30304;DHT22;17112;48.636;10.152;2023-04-24T15:09:17;14.90;47.60
30304;DHT22;17112;48.636;10.152;2023-04-24T15:11:42;14.90;47.80
30304;DHT22;17112;48.636;10.152;2023-04-24T15:14:08;14.90;47.30
30304;DHT22;17112;48.636;10.152;2023-04-24T15:16:34;14.80;47.60
30304;DHT22;17112;48.636;10.152;2023-04-24T15:18:59;14.80;47.50
30304;DHT22;17112;48.636;10.152;2023-04-24T15:21:25;14.70;47.60
30304;DHT22;17112;48.636;10.152;2023-04-24T15:23:51;14.70;47.50
30304;DHT22;17112;48.636;10.152;2023-04-24T15:26:17;14.60;47.40
30304;DHT22;17112;48.636;10.152;2023-04-24T15:28:43;14.50;47.80